Hlavní strana
METAR-TAF:

METAR-TAF

Letiště :

Ingolstadt, Německo

zeměpisná šířka: 48-43N, zeměpisná délka: 011-32E, výška: 367 m

Aktuální stav počasí

Zpráva byla vytvořena před 25 minutami, v 04:20 UTC
vítr z různých směrů 2 kt
Teplota 2°C
Vlhkost vzduchu 75%
Tlak 1022 hPa
Viditelnost: 8000 m

METAR: ETSI 210420Z AUTO VRB02KT 8000 // ////// 02/M02 Q1022 ///

Čas: 06:45 (04:45 UTC)


TAF: chybějící

Stav a předpovědi počasí z více než 4 000 letišť (zprávy METAR a TAF).

Červené a žluté tečky na mapě představují dostupné meteorologické stanice.

Když kurzor umístíte na tečku, zobrazí se název stanice.

Pak kliknutím zobrazíte stav a předpověď počasí.

Chcete-li změnit mapu, kliknutím na zelené tlačítko se znaménkem +mapu přiblížíte, kliknutím na zelené tlačítko se znaménkem – mapu oddálíte a kliknutím na zelené šipky přejdete na sousední mapy.


METAR-TAF: